Авиационная погода в Игнатьево

Регион: 
Погода METAR: 
UHBB 282200Z 29001MPS 9999 FEW033CB M02/M06 Q1024 R36/090060 NOSIG RMK QFE750/1000
Время наблюдения
2020-10-28T22:00:00Z
Температура C
-2.0
Точка росы
-6.0
Направление ветра
290
Скорость ветра (узлы)
2
Метео видимость
6.21
Явления погоды
Условия полета
VFR
Аэропорт подробнее: